Terminal Aerodrome Forecast
Issued by NWS

Home | Current Version | Previous Version | Text Only | Print | Product List | Glossary On
Versions: 1 2 3 4 5 6 7 8 9 10 11 12 13 14
000
FTUS46 KSEW 271120
TAFBFI
TAF
KBFI 271120Z 2712/2812 00000KT P6SM SKC
      TEMPO 2713/2716 P6SM SCT008
     FM272000 32008KT P6SM SCT200
     FM280400 04004KT P6SM SKC=

USA.gov is the U.S. government's official web portal to all federal, state and local government web resources and services.